CST,Max TemperatureF,Mean TemperatureF,Min TemperatureF,Max Dew PointF,MeanDew PointF,Min DewpointF,Max Humidity, Mean Humidity, Min Humidity, Max Sea Level PressureIn, Mean Sea Level PressureIn, Min Sea Level PressureIn, Max VisibilityMiles, Mean VisibilityMiles, Min VisibilityMiles, Max Wind SpeedMPH, Mean Wind SpeedMPH, Max Gust SpeedMPH,PrecipitationIn, CloudCover, Events, WindDirDegrees
2012-12-1,43,31,18,37,29,17,100,85,70,29.87,29.79,29.70,10,5,0,13,4,15,0.00,5,Fog,110
2012-12-2,47,36,25,36,31,25,100,83,65,29.84,29.66,29.35,10,7,0,14,7,16,0.00,1,Fog,134
2012-12-3,51,39,27,41,28,19,76,56,36,30.05,29.74,29.35,10,10,10,36,15,46,0.03,2,Rain,299
2012-12-4,27,22,17,17,14,11,84,73,62,30.36,30.26,30.08,10,10,10,13,6,16,0.00,0,,39
2012-12-5,44,31,17,27,20,13,84,70,56,30.23,29.90,29.71,10,10,10,20,7,26,0.00,2,,142
2012-12-6,42,33,23,28,23,18,81,63,44,30.05,29.98,29.84,10,10,7,22,9,31,0.00,3,,297
2012-12-7,24,21,18,19,17,14,92,87,81,30.09,30.02,29.94,10,8,2,13,9,17,T,7,Snow,67
2012-12-8,30,20,9,27,17,3,92,84,76,30.19,29.92,29.77,10,7,1,26,13,33,0.09,8,Snow,82
2012-12-9,11,1,-10,3,-1,-12,91,79,66,30.51,30.34,30.13,10,8,2,22,10,30,0.02,4,Snow,335
2012-12-10,26,22,18,20,9,-10,92,77,62,30.18,29.85,29.68,10,8,2,16,8,24,0.01,5,Snow,237
2012-12-11,25,19,13,21,15,7,88,81,73,29.92,29.80,29.68,10,9,2,21,7,27,0.02,7,Snow,145
2012-12-12,33,25,16,25,19,14,92,81,69,29.98,29.81,29.65,10,6,0,14,6,16,0.14,7,Fog-Snow,60
2012-12-13,26,19,11,24,14,7,100,88,76,30.14,30.03,29.91,10,7,2,14,7,16,0.01,8,Snow,117
2012-12-14,24,15,5,22,11,3,100,92,83,30.00,29.79,29.69,8,3,0,13,5,14,0.01,7,Fog-Snow,106
2012-12-15,27,19,10,25,16,7,96,85,74,29.88,29.80,29.68,10,7,1,15,8,21,0.00,5,,312
2012-12-16,24,21,17,20,16,14,100,92,84,29.90,29.84,29.76,10,5,1,13,6,14,0.01,8,Snow,80
2012-12-17,23,20,16,21,19,14,100,92,84,29.83,29.66,29.51,10,4,0,14,8,15,0.01,8,Fog-Snow,152
2012-12-18,31,25,18,24,20,16,100,88,75,29.78,29.61,29.51,10,7,1,17,6,22,0.08,6,Snow,161
2012-12-19,22,17,11,15,8,3,84,76,67,30.22,30.03,29.80,10,9,5,29,14,34,T,5,Snow,290
2012-12-20,14,2,-10,6,-3,-13,100,88,76,30.30,30.20,30.10,10,6,0,10,3,11,0.00,2,Fog,136
2012-12-21,22,8,-6,13,3,-8,91,80,68,30.28,30.19,30.10,10,10,8,13,6,14,0.00,0,,87
2012-12-22,18,11,4,12,4,0,91,81,70,30.29,30.20,30.01,10,10,10,16,8,22,T,2,,9
2012-12-23,24,15,5,3,0,-4,100,92,83,30.26,30.17,30.07,10,6,0,13,5,14,0.00,7,Snow,54
2012-12-24,6,-6,-18,-3,-10,-21,100,88,75,30.54,30.36,30.21,10,8,1,8,3,10,0.00,2,,311
2012-12-25,11,6,1,7,4,-2,83,75,66,30.61,30.45,30.28,10,5,2,9,5,10,0.06,8,Snow,181
2012-12-26,11,8,5,6,4,0,91,82,73,30.38,30.23,30.08,10,6,2,15,9,17,T,7,Snow,127
2012-12-27,14,4,-6,8,3,-8,95,88,80,30.19,30.13,30.03,10,5,0,10,5,13,0.05,7,Snow,103
2012-12-28,10,-1,-13,3,-5,-13,91,82,73,30.19,30.12,30.01,10,6,0,8,3,11,T,6,Fog-Snow,186
2012-12-29,12,-1,-15,5,-6,-20,92,82,72,30.19,30.15,29.99,10,9,5,8,2,9,0.00,0,,74
2012-12-30,26,10,-6,19,6,-7,87,77,67,30.24,30.11,30.03,10,10,9,21,8,27,T,5,Snow,334
2012-12-31,11,4,-4,3,0,-6,95,81,67,30.31,30.25,30.13,10,9,3,10,5,12,T,7,Snow,61